sensor_id;sensor_type;location;lat;lon;timestamp;P1;durP1;ratioP1;P2;durP2;ratioP2
53245;SDS011;39569;51.090;-1.786;2022-07-04T00:01:23;12.82;;;3.50;;
53245;SDS011;39569;51.090;-1.786;2022-07-04T00:03:50;11.68;;;3.72;;
53245;SDS011;39569;51.090;-1.786;2022-07-04T00:06:16;8.68;;;3.08;;
53245;SDS011;39569;51.090;-1.786;2022-07-04T00:08:43;10.30;;;3.50;;
53245;SDS011;39569;51.090;-1.786;2022-07-04T00:11:10;13.27;;;3.67;;
53245;SDS011;39569;51.090;-1.786;2022-07-04T00:13:38;14.87;;;4.30;;
53245;SDS011;39569;51.090;-1.786;2022-07-04T00:16:05;5.30;;;3.30;;
53245;SDS011;39569;51.090;-1.786;2022-07-04T00:18:32;11.10;;;3.80;;
53245;SDS011;39569;51.090;-1.786;2022-07-04T00:20:58;7.82;;;4.25;;
53245;SDS011;39569;51.090;-1.786;2022-07-04T00:23:25;12.02;;;3.95;;
53245;SDS011;39569;51.090;-1.786;2022-07-04T00:25:52;7.72;;;3.60;;
53245;SDS011;39569;51.090;-1.786;2022-07-04T00:28:19;9.13;;;3.38;;
53245;SDS011;39569;51.090;-1.786;2022-07-04T00:30:47;11.40;;;3.17;;
53245;SDS011;39569;51.090;-1.786;2022-07-04T00:33:14;5.78;;;3.20;;
53245;SDS011;39569;51.090;-1.786;2022-07-04T00:35:41;17.95;;;4.32;;
53245;SDS011;39569;51.090;-1.786;2022-07-04T00:38:08;10.90;;;3.97;;
53245;SDS011;39569;51.090;-1.786;2022-07-04T00:40:35;11.25;;;3.67;;
53245;SDS011;39569;51.090;-1.786;2022-07-04T00:43:02;6.93;;;3.42;;
53245;SDS011;39569;51.090;-1.786;2022-07-04T00:45:29;9.52;;;3.33;;
53245;SDS011;39569;51.090;-1.786;2022-07-04T00:47:57;13.90;;;3.75;;
53245;SDS011;39569;51.090;-1.786;2022-07-04T00:50:23;10.70;;;3.30;;
53245;SDS011;39569;51.090;-1.786;2022-07-04T00:52:51;6.90;;;3.47;;
53245;SDS011;39569;51.090;-1.786;2022-07-04T00:55:19;5.78;;;3.88;;
53245;SDS011;39569;51.090;-1.786;2022-07-04T00:57:47;8.48;;;3.38;;
53245;SDS011;39569;51.090;-1.786;2022-07-04T01:00:15;11.57;;;3.20;;
53245;SDS011;39569;51.090;-1.786;2022-07-04T01:02:43;14.10;;;3.58;;
53245;SDS011;39569;51.090;-1.786;2022-07-04T01:05:12;12.80;;;4.63;;
53245;SDS011;39569;51.090;-1.786;2022-07-04T01:07:39;8.43;;;3.53;;
53245;SDS011;39569;51.090;-1.786;2022-07-04T01:10:06;7.05;;;3.65;;
53245;SDS011;39569;51.090;-1.786;2022-07-04T01:12:34;13.95;;;4.85;;
53245;SDS011;39569;51.090;-1.786;2022-07-04T01:15:01;10.18;;;3.22;;
53245;SDS011;39569;51.090;-1.786;2022-07-04T01:17:28;9.27;;;3.63;;
53245;SDS011;39569;51.090;-1.786;2022-07-04T01:19:54;5.10;;;2.33;;
53245;SDS011;39569;51.090;-1.786;2022-07-04T01:22:23;10.32;;;4.00;;
53245;SDS011;39569;51.090;-1.786;2022-07-04T01:24:50;7.95;;;3.00;;
53245;SDS011;39569;51.090;-1.786;2022-07-04T01:27:17;6.03;;;2.92;;
53245;SDS011;39569;51.090;-1.786;2022-07-04T01:29:44;9.05;;;2.80;;
53245;SDS011;39569;51.090;-1.786;2022-07-04T01:32:11;14.85;;;4.00;;
53245;SDS011;39569;51.090;-1.786;2022-07-04T01:34:38;12.10;;;3.17;;
53245;SDS011;39569;51.090;-1.786;2022-07-04T01:37:05;11.77;;;3.60;;
53245;SDS011;39569;51.090;-1.786;2022-07-04T01:39:34;6.07;;;3.15;;
53245;SDS011;39569;51.090;-1.786;2022-07-04T01:42:01;8.07;;;3.85;;
53245;SDS011;39569;51.090;-1.786;2022-07-04T01:44:28;13.85;;;4.35;;
53245;SDS011;39569;51.090;-1.786;2022-07-04T01:46:55;8.93;;;3.83;;
53245;SDS011;39569;51.090;-1.786;2022-07-04T01:49:21;10.07;;;3.75;;
53245;SDS011;39569;51.090;-1.786;2022-07-04T01:51:49;12.55;;;3.72;;
53245;SDS011;39569;51.090;-1.786;2022-07-04T01:54:17;24.10;;;3.80;;
53245;SDS011;39569;51.090;-1.786;2022-07-04T01:56:45;14.90;;;3.58;;
53245;SDS011;39569;51.090;-1.786;2022-07-04T01:59:12;9.25;;;3.17;;
53245;SDS011;39569;51.090;-1.786;2022-07-04T02:01:39;9.77;;;3.17;;
53245;SDS011;39569;51.090;-1.786;2022-07-04T02:04:05;9.43;;;3.28;;
53245;SDS011;39569;51.090;-1.786;2022-07-04T02:06:32;12.55;;;4.53;;
53245;SDS011;39569;51.090;-1.786;2022-07-04T02:08:59;11.43;;;4.80;;
53245;SDS011;39569;51.090;-1.786;2022-07-04T02:11:41;15.27;;;5.28;;
53245;SDS011;39569;51.090;-1.786;2022-07-04T02:14:27;13.00;;;4.67;;
53245;SDS011;39569;51.090;-1.786;2022-07-04T02:16:54;13.15;;;3.40;;
53245;SDS011;39569;51.090;-1.786;2022-07-04T02:19:21;16.00;;;4.13;;
53245;SDS011;39569;51.090;-1.786;2022-07-04T02:21:48;5.30;;;3.55;;
53245;SDS011;39569;51.090;-1.786;2022-07-04T02:24:15;8.25;;;2.85;;
53245;SDS011;39569;51.090;-1.786;2022-07-04T02:26:42;14.35;;;3.72;;
53245;SDS011;39569;51.090;-1.786;2022-07-04T02:29:08;16.90;;;4.45;;
53245;SDS011;39569;51.090;-1.786;2022-07-04T02:31:36;19.15;;;4.13;;
53245;SDS011;39569;51.090;-1.786;2022-07-04T02:34:03;6.47;;;3.20;;
53245;SDS011;39569;51.090;-1.786;2022-07-04T02:36:30;8.13;;;3.28;;
53245;SDS011;39569;51.090;-1.786;2022-07-04T02:38:57;8.23;;;2.78;;
53245;SDS011;39569;51.090;-1.786;2022-07-04T02:41:24;7.72;;;3.33;;
53245;SDS011;39569;51.090;-1.786;2022-07-04T02:43:50;7.05;;;4.10;;
53245;SDS011;39569;51.090;-1.786;2022-07-04T02:46:18;8.93;;;3.90;;
53245;SDS011;39569;51.090;-1.786;2022-07-04T02:48:47;7.22;;;3.20;;
53245;SDS011;39569;51.090;-1.786;2022-07-04T02:51:14;7.90;;;3.90;;
53245;SDS011;39569;51.090;-1.786;2022-07-04T02:53:41;7.82;;;3.97;;
53245;SDS011;39569;51.090;-1.786;2022-07-04T02:56:08;13.65;;;3.53;;
53245;SDS011;39569;51.090;-1.786;2022-07-04T02:58:39;5.55;;;3.45;;
53245;SDS011;39569;51.090;-1.786;2022-07-04T03:01:05;7.47;;;3.72;;
53245;SDS011;39569;51.090;-1.786;2022-07-04T03:03:32;9.88;;;3.85;;
53245;SDS011;39569;51.090;-1.786;2022-07-04T03:06:01;5.25;;;3.85;;
53245;SDS011;39569;51.090;-1.786;2022-07-04T03:08:28;4.88;;;2.80;;
53245;SDS011;39569;51.090;-1.786;2022-07-04T03:10:54;11.55;;;4.20;;
53245;SDS011;39569;51.090;-1.786;2022-07-04T03:13:21;10.90;;;4.05;;
53245;SDS011;39569;51.090;-1.786;2022-07-04T03:15:49;22.88;;;4.13;;
53245;SDS011;39569;51.090;-1.786;2022-07-04T03:18:16;11.02;;;3.78;;
53245;SDS011;39569;51.090;-1.786;2022-07-04T03:20:43;5.18;;;3.33;;
53245;SDS011;39569;51.090;-1.786;2022-07-04T03:23:11;7.68;;;3.38;;
53245;SDS011;39569;51.090;-1.786;2022-07-04T03:25:38;8.35;;;4.35;;
53245;SDS011;39569;51.090;-1.786;2022-07-04T03:28:06;13.93;;;4.65;;
53245;SDS011;39569;51.090;-1.786;2022-07-04T03:30:33;5.05;;;3.55;;
53245;SDS011;39569;51.090;-1.786;2022-07-04T03:33:00;14.85;;;4.72;;
53245;SDS011;39569;51.090;-1.786;2022-07-04T03:35:27;4.95;;;3.28;;
53245;SDS011;39569;51.090;-1.786;2022-07-04T03:37:54;8.68;;;3.58;;
53245;SDS011;39569;51.090;-1.786;2022-07-04T03:40:22;10.85;;;3.30;;
53245;SDS011;39569;51.090;-1.786;2022-07-04T03:42:50;7.57;;;4.20;;
53245;SDS011;39569;51.090;-1.786;2022-07-04T03:45:18;7.34;;;3.12;;
53245;SDS011;39569;51.090;-1.786;2022-07-04T03:47:44;10.35;;;4.22;;
53245;SDS011;39569;51.090;-1.786;2022-07-04T03:50:11;7.45;;;3.45;;
53245;SDS011;39569;51.090;-1.786;2022-07-04T03:52:38;5.97;;;3.28;;
53245;SDS011;39569;51.090;-1.786;2022-07-04T03:55:05;4.63;;;3.08;;
53245;SDS011;39569;51.090;-1.786;2022-07-04T03:57:34;5.57;;;3.35;;
53245;SDS011;39569;51.090;-1.786;2022-07-04T04:00:01;12.88;;;3.80;;
53245;SDS011;39569;51.090;-1.786;2022-07-04T04:02:28;15.75;;;3.63;;
53245;SDS011;39569;51.090;-1.786;2022-07-04T04:04:55;9.18;;;3.53;;
53245;SDS011;39569;51.090;-1.786;2022-07-04T04:07:39;7.10;;;3.58;;
53245;SDS011;39569;51.090;-1.786;2022-07-04T04:10:07;12.23;;;3.67;;
53245;SDS011;39569;51.090;-1.786;2022-07-04T04:12:36;4.65;;;3.47;;
53245;SDS011;39569;51.090;-1.786;2022-07-04T04:15:03;4.65;;;3.78;;
53245;SDS011;39569;51.090;-1.786;2022-07-04T04:17:30;9.43;;;3.25;;
53245;SDS011;39569;51.090;-1.786;2022-07-04T04:19:57;4.38;;;2.92;;
53245;SDS011;39569;51.090;-1.786;2022-07-04T04:22:23;6.35;;;3.42;;
53245;SDS011;39569;51.090;-1.786;2022-07-04T04:24:50;5.32;;;3.58;;
53245;SDS011;39569;51.090;-1.786;2022-07-04T04:27:17;7.07;;;3.40;;
53245;SDS011;39569;51.090;-1.786;2022-07-04T04:29:45;6.30;;;3.22;;
53245;SDS011;39569;51.090;-1.786;2022-07-04T04:32:12;6.57;;;3.35;;
53245;SDS011;39569;51.090;-1.786;2022-07-04T04:34:39;5.07;;;3.13;;
53245;SDS011;39569;51.090;-1.786;2022-07-04T04:37:05;6.85;;;2.65;;
53245;SDS011;39569;51.090;-1.786;2022-07-04T04:39:32;6.15;;;3.10;;
53245;SDS011;39569;51.090;-1.786;2022-07-04T04:41:59;4.15;;;3.08;;
53245;SDS011;39569;51.090;-1.786;2022-07-04T04:44:26;15.77;;;3.67;;
53245;SDS011;39569;51.090;-1.786;2022-07-04T04:46:54;5.15;;;2.75;;
53245;SDS011;39569;51.090;-1.786;2022-07-04T04:49:21;5.80;;;3.47;;
53245;SDS011;39569;51.090;-1.786;2022-07-04T04:51:47;4.78;;;3.33;;
53245;SDS011;39569;51.090;-1.786;2022-07-04T04:54:14;11.52;;;4.38;;
53245;SDS011;39569;51.090;-1.786;2022-07-04T04:56:41;4.45;;;2.67;;
53245;SDS011;39569;51.090;-1.786;2022-07-04T04:59:08;5.28;;;3.30;;
53245;SDS011;39569;51.090;-1.786;2022-07-04T05:01:35;11.85;;;3.42;;
53245;SDS011;39569;51.090;-1.786;2022-07-04T05:04:03;7.57;;;4.00;;
53245;SDS011;39569;51.090;-1.786;2022-07-04T05:06:30;4.75;;;2.92;;
53245;SDS011;39569;51.090;-1.786;2022-07-04T05:08:57;12.38;;;3.72;;
53245;SDS011;39569;51.090;-1.786;2022-07-04T05:11:23;12.73;;;4.45;;
53245;SDS011;39569;51.090;-1.786;2022-07-04T05:13:50;7.10;;;4.03;;
53245;SDS011;39569;51.090;-1.786;2022-07-04T05:16:17;9.23;;;3.65;;
53245;SDS011;39569;51.090;-1.786;2022-07-04T05:18:44;6.63;;;3.67;;
53245;SDS011;39569;51.090;-1.786;2022-07-04T05:21:12;8.75;;;4.18;;
53245;SDS011;39569;51.090;-1.786;2022-07-04T05:23:39;19.38;;;4.63;;
53245;SDS011;39569;51.090;-1.786;2022-07-04T05:26:06;8.63;;;2.70;;
53245;SDS011;39569;51.090;-1.786;2022-07-04T05:28:33;9.73;;;3.25;;
53245;SDS011;39569;51.090;-1.786;2022-07-04T05:30:59;10.95;;;3.90;;
53245;SDS011;39569;51.090;-1.786;2022-07-04T05:33:26;7.85;;;3.78;;
53245;SDS011;39569;51.090;-1.786;2022-07-04T05:35:53;7.85;;;3.38;;
53245;SDS011;39569;51.090;-1.786;2022-07-04T05:38:21;9.02;;;3.60;;
53245;SDS011;39569;51.090;-1.786;2022-07-04T05:40:48;15.40;;;3.45;;
53245;SDS011;39569;51.090;-1.786;2022-07-04T05:43:15;11.50;;;3.00;;
53245;SDS011;39569;51.090;-1.786;2022-07-04T05:45:41;7.90;;;2.45;;
53245;SDS011;39569;51.090;-1.786;2022-07-04T05:48:08;8.93;;;2.78;;
53245;SDS011;39569;51.090;-1.786;2022-07-04T05:50:35;11.40;;;2.58;;
53245;SDS011;39569;51.090;-1.786;2022-07-04T05:53:02;8.77;;;3.43;;
53245;SDS011;39569;51.090;-1.786;2022-07-04T05:55:30;9.48;;;3.60;;
53245;SDS011;39569;51.090;-1.786;2022-07-04T05:57:57;11.07;;;3.72;;
53245;SDS011;39569;51.090;-1.786;2022-07-04T06:00:24;8.05;;;3.38;;
53245;SDS011;39569;51.090;-1.786;2022-07-04T06:02:50;20.02;;;3.70;;
53245;SDS011;39569;51.090;-1.786;2022-07-04T06:05:17;10.73;;;3.17;;
53245;SDS011;39569;51.090;-1.786;2022-07-04T06:07:44;9.00;;;3.33;;
53245;SDS011;39569;51.090;-1.786;2022-07-04T06:10:13;13.25;;;3.28;;
53245;SDS011;39569;51.090;-1.786;2022-07-04T06:12:41;13.88;;;3.15;;
53245;SDS011;39569;51.090;-1.786;2022-07-04T06:15:08;5.90;;;3.45;;
53245;SDS011;39569;51.090;-1.786;2022-07-04T06:17:36;6.13;;;3.53;;
53245;SDS011;39569;51.090;-1.786;2022-07-04T06:20:03;23.10;;;3.53;;
53245;SDS011;39569;51.090;-1.786;2022-07-04T06:22:38;9.73;;;3.63;;
53245;SDS011;39569;51.090;-1.786;2022-07-04T06:25:06;13.80;;;3.58;;
53245;SDS011;39569;51.090;-1.786;2022-07-04T06:27:36;4.25;;;2.70;;
53245;SDS011;39569;51.090;-1.786;2022-07-04T06:30:05;6.82;;;2.95;;
53245;SDS011;39569;51.090;-1.786;2022-07-04T06:32:40;16.05;;;3.85;;
53245;SDS011;39569;51.090;-1.786;2022-07-04T06:35:08;7.10;;;3.00;;
53245;SDS011;39569;51.090;-1.786;2022-07-04T06:37:53;7.22;;;3.00;;
53245;SDS011;39569;51.090;-1.786;2022-07-04T06:40:20;16.55;;;3.85;;
53245;SDS011;39569;51.090;-1.786;2022-07-04T06:42:47;6.32;;;3.42;;
53245;SDS011;39569;51.090;-1.786;2022-07-04T06:45:15;6.57;;;3.47;;
53245;SDS011;39569;51.090;-1.786;2022-07-04T06:47:43;7.72;;;2.20;;
53245;SDS011;39569;51.090;-1.786;2022-07-04T06:50:10;5.85;;;3.05;;
53245;SDS011;39569;51.090;-1.786;2022-07-04T06:52:37;10.80;;;3.80;;
53245;SDS011;39569;51.090;-1.786;2022-07-04T06:55:04;7.40;;;2.45;;
53245;SDS011;39569;51.090;-1.786;2022-07-04T06:57:32;10.57;;;2.38;;
53245;SDS011;39569;51.090;-1.786;2022-07-04T06:59:59;7.68;;;2.63;;
53245;SDS011;39569;51.090;-1.786;2022-07-04T07:02:27;11.82;;;2.50;;
53245;SDS011;39569;51.090;-1.786;2022-07-04T07:04:54;9.25;;;2.67;;
53245;SDS011;39569;51.090;-1.786;2022-07-04T07:07:21;10.43;;;2.70;;
53245;SDS011;39569;51.090;-1.786;2022-07-04T07:09:49;6.18;;;2.78;;
53245;SDS011;39569;51.090;-1.786;2022-07-04T07:12:16;10.23;;;3.38;;
53245;SDS011;39569;51.090;-1.786;2022-07-04T07:14:43;6.17;;;2.90;;
53245;SDS011;39569;51.090;-1.786;2022-07-04T07:17:10;8.02;;;2.00;;
53245;SDS011;39569;51.090;-1.786;2022-07-04T07:19:39;14.02;;;3.45;;
53245;SDS011;39569;51.090;-1.786;2022-07-04T07:22:05;10.55;;;2.22;;
53245;SDS011;39569;51.090;-1.786;2022-07-04T07:24:32;15.43;;;2.38;;
53245;SDS011;39569;51.090;-1.786;2022-07-04T07:26:59;2.10;;;1.83;;
53245;SDS011;39569;51.090;-1.786;2022-07-04T07:29:26;8.57;;;2.35;;
53245;SDS011;39569;51.090;-1.786;2022-07-04T07:31:53;4.53;;;2.50;;
53245;SDS011;39569;51.090;-1.786;2022-07-04T07:34:20;7.68;;;2.20;;
53245;SDS011;39569;51.090;-1.786;2022-07-04T07:36:48;5.07;;;2.17;;
53245;SDS011;39569;51.090;-1.786;2022-07-04T07:39:15;10.18;;;3.45;;
53245;SDS011;39569;51.090;-1.786;2022-07-04T07:41:42;8.55;;;2.03;;
53245;SDS011;39569;51.090;-1.786;2022-07-04T07:44:08;6.47;;;2.80;;
53245;SDS011;39569;51.090;-1.786;2022-07-04T07:46:35;9.07;;;2.95;;
53245;SDS011;39569;51.090;-1.786;2022-07-04T07:49:02;12.88;;;3.00;;
53245;SDS011;39569;51.090;-1.786;2022-07-04T07:51:29;17.83;;;3.03;;
53245;SDS011;39569;51.090;-1.786;2022-07-04T07:53:57;5.00;;;2.53;;
53245;SDS011;39569;51.090;-1.786;2022-07-04T07:56:24;7.22;;;2.10;;
53245;SDS011;39569;51.090;-1.786;2022-07-04T07:58:51;8.48;;;2.53;;
53245;SDS011;39569;51.090;-1.786;2022-07-04T08:01:18;10.68;;;3.28;;
53245;SDS011;39569;51.090;-1.786;2022-07-04T08:03:46;6.05;;;2.35;;
53245;SDS011;39569;51.090;-1.786;2022-07-04T08:06:31;4.28;;;2.25;;
53245;SDS011;39569;51.090;-1.786;2022-07-04T08:08:59;14.82;;;2.67;;
53245;SDS011;39569;51.090;-1.786;2022-07-04T08:11:26;9.32;;;2.38;;
53245;SDS011;39569;51.090;-1.786;2022-07-04T08:13:53;10.55;;;2.75;;
53245;SDS011;39569;51.090;-1.786;2022-07-04T08:16:20;6.78;;;2.25;;
53245;SDS011;39569;51.090;-1.786;2022-07-04T08:18:47;7.00;;;2.40;;
53245;SDS011;39569;51.090;-1.786;2022-07-04T08:21:14;6.15;;;2.00;;
53245;SDS011;39569;51.090;-1.786;2022-07-04T08:23:41;2.63;;;1.80;;
53245;SDS011;39569;51.090;-1.786;2022-07-04T08:26:09;9.68;;;2.58;;
53245;SDS011;39569;51.090;-1.786;2022-07-04T08:28:36;4.35;;;2.22;;
53245;SDS011;39569;51.090;-1.786;2022-07-04T08:31:03;7.18;;;1.73;;
53245;SDS011;39569;51.090;-1.786;2022-07-04T08:33:30;8.20;;;2.63;;
53245;SDS011;39569;51.090;-1.786;2022-07-04T08:35:57;9.27;;;3.45;;
53245;SDS011;39569;51.090;-1.786;2022-07-04T08:38:24;13.70;;;3.15;;
53245;SDS011;39569;51.090;-1.786;2022-07-04T08:40:51;9.82;;;2.20;;
53245;SDS011;39569;51.090;-1.786;2022-07-04T08:43:25;5.30;;;2.15;;
53245;SDS011;39569;51.090;-1.786;2022-07-04T08:45:54;13.55;;;2.65;;
53245;SDS011;39569;51.090;-1.786;2022-07-04T08:48:23;8.15;;;2.50;;
53245;SDS011;39569;51.090;-1.786;2022-07-04T08:50:51;12.38;;;2.47;;
53245;SDS011;39569;51.090;-1.786;2022-07-04T08:53:22;10.60;;;3.63;;
53245;SDS011;39569;51.090;-1.786;2022-07-04T08:55:53;3.80;;;2.08;;
53245;SDS011;39569;51.090;-1.786;2022-07-04T08:58:41;12.15;;;2.03;;
53245;SDS011;39569;51.090;-1.786;2022-07-04T09:01:09;5.05;;;2.65;;
53245;SDS011;39569;51.090;-1.786;2022-07-04T09:03:40;7.35;;;1.85;;
53245;SDS011;39569;51.090;-1.786;2022-07-04T09:06:08;9.60;;;2.92;;
53245;SDS011;39569;51.090;-1.786;2022-07-04T09:08:35;5.38;;;2.33;;
53245;SDS011;39569;51.090;-1.786;2022-07-04T09:11:02;5.60;;;1.75;;
53245;SDS011;39569;51.090;-1.786;2022-07-04T09:13:29;2.30;;;1.95;;
53245;SDS011;39569;51.090;-1.786;2022-07-04T09:15:59;3.42;;;1.60;;
53245;SDS011;39569;51.090;-1.786;2022-07-04T09:18:28;6.72;;;2.13;;
53245;SDS011;39569;51.090;-1.786;2022-07-04T09:20:56;5.80;;;2.53;;
53245;SDS011;39569;51.090;-1.786;2022-07-04T09:23:25;11.05;;;1.60;;
53245;SDS011;39569;51.090;-1.786;2022-07-04T09:26:07;3.15;;;0.90;;
53245;SDS011;39569;51.090;-1.786;2022-07-04T09:28:37;5.80;;;2.15;;
53245;SDS011;39569;51.090;-1.786;2022-07-04T09:31:15;7.72;;;2.33;;
53245;SDS011;39569;51.090;-1.786;2022-07-04T09:33:47;4.65;;;1.60;;
53245;SDS011;39569;51.090;-1.786;2022-07-04T09:36:17;9.05;;;1.63;;
53245;SDS011;39569;51.090;-1.786;2022-07-04T09:38:45;4.72;;;2.20;;
53245;SDS011;39569;51.090;-1.786;2022-07-04T09:41:12;7.13;;;2.83;;
53245;SDS011;39569;51.090;-1.786;2022-07-04T09:43:59;4.75;;;1.80;;
53245;SDS011;39569;51.090;-1.786;2022-07-04T09:46:28;6.38;;;1.75;;
53245;SDS011;39569;51.090;-1.786;2022-07-04T09:48:55;4.90;;;1.95;;
53245;SDS011;39569;51.090;-1.786;2022-07-04T09:51:34;6.90;;;1.77;;
53245;SDS011;39569;51.090;-1.786;2022-07-04T09:54:13;4.57;;;1.50;;
53245;SDS011;39569;51.090;-1.786;2022-07-04T09:56:41;4.03;;;1.75;;
53245;SDS011;39569;51.090;-1.786;2022-07-04T09:59:08;4.45;;;1.92;;
53245;SDS011;39569;51.090;-1.786;2022-07-04T10:01:36;5.32;;;1.67;;
53245;SDS011;39569;51.090;-1.786;2022-07-04T10:04:04;3.63;;;1.52;;
53245;SDS011;39569;51.090;-1.786;2022-07-04T10:06:31;5.88;;;1.70;;
53245;SDS011;39569;51.090;-1.786;2022-07-04T10:09:06;11.70;;;2.08;;
53245;SDS011;39569;51.090;-1.786;2022-07-04T10:14:03;6.47;;;2.17;;
53245;SDS011;39569;51.090;-1.786;2022-07-04T10:16:33;9.88;;;2.15;;
53245;SDS011;39569;51.090;-1.786;2022-07-04T10:19:02;5.40;;;1.67;;
53245;SDS011;39569;51.090;-1.786;2022-07-04T10:21:29;7.68;;;2.00;;
53245;SDS011;39569;51.090;-1.786;2022-07-04T10:23:56;12.70;;;3.30;;
53245;SDS011;39569;51.090;-1.786;2022-07-04T10:26:23;8.50;;;2.85;;
53245;SDS011;39569;51.090;-1.786;2022-07-04T10:28:50;3.07;;;1.83;;
53245;SDS011;39569;51.090;-1.786;2022-07-04T10:31:18;5.40;;;1.97;;
53245;SDS011;39569;51.090;-1.786;2022-07-04T10:33:45;8.10;;;2.40;;
53245;SDS011;39569;51.090;-1.786;2022-07-04T10:36:15;6.07;;;2.33;;
53245;SDS011;39569;51.090;-1.786;2022-07-04T10:38:46;15.40;;;1.80;;
53245;SDS011;39569;51.090;-1.786;2022-07-04T10:41:16;3.58;;;1.67;;
53245;SDS011;39569;51.090;-1.786;2022-07-04T10:43:55;6.13;;;1.58;;
53245;SDS011;39569;51.090;-1.786;2022-07-04T10:46:29;4.18;;;1.95;;
53245;SDS011;39569;51.090;-1.786;2022-07-04T10:49:18;3.90;;;2.65;;
53245;SDS011;39569;51.090;-1.786;2022-07-04T10:51:48;10.02;;;2.15;;
53245;SDS011;39569;51.090;-1.786;2022-07-04T10:54:16;4.05;;;1.92;;
53245;SDS011;39569;51.090;-1.786;2022-07-04T10:56:46;6.05;;;2.50;;
53245;SDS011;39569;51.090;-1.786;2022-07-04T10:59:19;8.95;;;1.88;;
53245;SDS011;39569;51.090;-1.786;2022-07-04T11:01:48;6.88;;;2.15;;
53245;SDS011;39569;51.090;-1.786;2022-07-04T11:07:13;2.42;;;1.95;;
53245;SDS011;39569;51.090;-1.786;2022-07-04T11:09:41;25.15;;;4.75;;
53245;SDS011;39569;51.090;-1.786;2022-07-04T11:12:08;3.35;;;1.77;;
53245;SDS011;39569;51.090;-1.786;2022-07-04T11:14:36;7.90;;;2.40;;
53245;SDS011;39569;51.090;-1.786;2022-07-04T11:17:05;2.17;;;1.73;;
53245;SDS011;39569;51.090;-1.786;2022-07-04T11:19:33;5.63;;;2.25;;
53245;SDS011;39569;51.090;-1.786;2022-07-04T11:22:00;1.85;;;1.67;;
53245;SDS011;39569;51.090;-1.786;2022-07-04T11:24:28;3.55;;;1.83;;
53245;SDS011;39569;51.090;-1.786;2022-07-04T11:26:55;2.92;;;1.55;;
53245;SDS011;39569;51.090;-1.786;2022-07-04T11:29:23;13.05;;;2.92;;
53245;SDS011;39569;51.090;-1.786;2022-07-04T11:31:50;2.53;;;1.80;;
53245;SDS011;39569;51.090;-1.786;2022-07-04T11:34:19;5.18;;;1.88;;
53245;SDS011;39569;51.090;-1.786;2022-07-04T11:36:47;10.70;;;1.83;;
53245;SDS011;39569;51.090;-1.786;2022-07-04T11:39:16;6.05;;;2.83;;
53245;SDS011;39569;51.090;-1.786;2022-07-04T11:41:47;4.45;;;1.23;;
53245;SDS011;39569;51.090;-1.786;2022-07-04T11:44:33;2.95;;;1.98;;
53245;SDS011;39569;51.090;-1.786;2022-07-04T11:47:18;7.15;;;1.83;;
53245;SDS011;39569;51.090;-1.786;2022-07-04T11:49:47;29.13;;;4.47;;
53245;SDS011;39569;51.090;-1.786;2022-07-04T11:52:16;2.95;;;1.75;;
53245;SDS011;39569;51.090;-1.786;2022-07-04T11:54:45;5.40;;;2.15;;
53245;SDS011;39569;51.090;-1.786;2022-07-04T11:57:17;4.88;;;2.38;;
53245;SDS011;39569;51.090;-1.786;2022-07-04T11:59:53;6.07;;;2.05;;
53245;SDS011;39569;51.090;-1.786;2022-07-04T12:02:21;6.20;;;3.28;;
53245;SDS011;39569;51.090;-1.786;2022-07-04T12:04:48;3.97;;;1.92;;
53245;SDS011;39569;51.090;-1.786;2022-07-04T12:07:16;9.35;;;2.60;;
53245;SDS011;39569;51.090;-1.786;2022-07-04T12:09:44;5.93;;;2.30;;
53245;SDS011;39569;51.090;-1.786;2022-07-04T12:12:13;4.30;;;2.20;;
53245;SDS011;39569;51.090;-1.786;2022-07-04T12:14:57;5.88;;;2.90;;
53245;SDS011;39569;51.090;-1.786;2022-07-04T12:17:29;3.53;;;1.77;;
53245;SDS011;39569;51.090;-1.786;2022-07-04T12:19:58;3.85;;;2.42;;
53245;SDS011;39569;51.090;-1.786;2022-07-04T12:22:31;5.97;;;2.10;;
53245;SDS011;39569;51.090;-1.786;2022-07-04T12:24:59;5.20;;;1.98;;
53245;SDS011;39569;51.090;-1.786;2022-07-04T12:27:26;5.53;;;1.98;;
53245;SDS011;39569;51.090;-1.786;2022-07-04T12:29:54;2.35;;;1.77;;
53245;SDS011;39569;51.090;-1.786;2022-07-04T12:32:46;4.93;;;1.55;;
53245;SDS011;39569;51.090;-1.786;2022-07-04T12:38:05;4.40;;;1.80;;
53245;SDS011;39569;51.090;-1.786;2022-07-04T12:40:33;6.93;;;2.45;;
53245;SDS011;39569;51.090;-1.786;2022-07-04T12:43:01;2.40;;;1.80;;
53245;SDS011;39569;51.090;-1.786;2022-07-04T12:45:47;2.53;;;1.55;;
53245;SDS011;39569;51.090;-1.786;2022-07-04T12:48:15;5.43;;;2.50;;
53245;SDS011;39569;51.090;-1.786;2022-07-04T12:50:43;6.68;;;2.22;;
53245;SDS011;39569;51.090;-1.786;2022-07-04T12:53:11;5.97;;;2.20;;
53245;SDS011;39569;51.090;-1.786;2022-07-04T12:55:38;3.67;;;1.42;;
53245;SDS011;39569;51.090;-1.786;2022-07-04T12:58:07;2.20;;;1.75;;
53245;SDS011;39569;51.090;-1.786;2022-07-04T13:00:33;4.60;;;2.55;;
53245;SDS011;39569;51.090;-1.786;2022-07-04T13:03:02;2.15;;;1.67;;
53245;SDS011;39569;51.090;-1.786;2022-07-04T13:05:29;3.33;;;1.27;;
53245;SDS011;39569;51.090;-1.786;2022-07-04T13:07:56;5.00;;;1.33;;
53245;SDS011;39569;51.090;-1.786;2022-07-04T13:10:23;2.35;;;1.17;;
53245;SDS011;39569;51.090;-1.786;2022-07-04T13:12:49;1.83;;;1.40;;
53245;SDS011;39569;51.090;-1.786;2022-07-04T13:15:16;2.63;;;1.17;;
53245;SDS011;39569;51.090;-1.786;2022-07-04T13:17:43;13.03;;;1.80;;
53245;SDS011;39569;51.090;-1.786;2022-07-04T13:20:12;4.38;;;1.15;;
53245;SDS011;39569;51.090;-1.786;2022-07-04T13:22:38;8.90;;;1.50;;
53245;SDS011;39569;51.090;-1.786;2022-07-04T13:25:05;6.28;;;1.45;;
53245;SDS011;39569;51.090;-1.786;2022-07-04T13:27:32;14.05;;;1.98;;
53245;SDS011;39569;51.090;-1.786;2022-07-04T13:29:59;1.42;;;1.13;;
53245;SDS011;39569;51.090;-1.786;2022-07-04T13:32:26;3.50;;;1.40;;
53245;SDS011;39569;51.090;-1.786;2022-07-04T13:34:53;2.55;;;1.33;;
53245;SDS011;39569;51.090;-1.786;2022-07-04T13:37:22;64.47;;;3.80;;
53245;SDS011;39569;51.090;-1.786;2022-07-04T13:39:49;3.85;;;1.98;;
53245;SDS011;39569;51.090;-1.786;2022-07-04T13:42:16;13.10;;;1.65;;
53245;SDS011;39569;51.090;-1.786;2022-07-04T13:45:03;1.67;;;1.38;;
53245;SDS011;39569;51.090;-1.786;2022-07-04T13:47:31;3.00;;;1.23;;
53245;SDS011;39569;51.090;-1.786;2022-07-04T13:49:58;12.48;;;1.75;;
53245;SDS011;39569;51.090;-1.786;2022-07-04T13:52:26;5.05;;;1.52;;
53245;SDS011;39569;51.090;-1.786;2022-07-04T13:54:53;6.65;;;1.48;;
53245;SDS011;39569;51.090;-1.786;2022-07-04T13:57:19;21.30;;;2.67;;
53245;SDS011;39569;51.090;-1.786;2022-07-04T13:59:46;2.90;;;1.10;;
53245;SDS011;39569;51.090;-1.786;2022-07-04T14:02:13;12.25;;;2.20;;
53245;SDS011;39569;51.090;-1.786;2022-07-04T14:04:40;26.55;;;1.85;;
53245;SDS011;39569;51.090;-1.786;2022-07-04T14:07:07;11.23;;;1.48;;
53245;SDS011;39569;51.090;-1.786;2022-07-04T14:09:35;8.82;;;1.67;;
53245;SDS011;39569;51.090;-1.786;2022-07-04T14:12:02;4.18;;;1.40;;
53245;SDS011;39569;51.090;-1.786;2022-07-04T14:14:29;4.40;;;1.33;;
53245;SDS011;39569;51.090;-1.786;2022-07-04T14:16:56;3.33;;;1.33;;
53245;SDS011;39569;51.090;-1.786;2022-07-04T14:19:23;6.68;;;1.90;;
53245;SDS011;39569;51.090;-1.786;2022-07-04T14:21:50;17.52;;;1.75;;
53245;SDS011;39569;51.090;-1.786;2022-07-04T14:24:17;4.55;;;1.77;;
53245;SDS011;39569;51.090;-1.786;2022-07-04T14:26:45;11.43;;;1.88;;
53245;SDS011;39569;51.090;-1.786;2022-07-04T14:29:12;3.95;;;1.55;;
53245;SDS011;39569;51.090;-1.786;2022-07-04T14:31:39;10.35;;;1.73;;
53245;SDS011;39569;51.090;-1.786;2022-07-04T14:34:06;15.80;;;2.40;;
53245;SDS011;39569;51.090;-1.786;2022-07-04T14:36:36;1.80;;;1.40;;
53245;SDS011;39569;51.090;-1.786;2022-07-04T14:39:03;1.17;;;1.15;;
53245;SDS011;39569;51.090;-1.786;2022-07-04T14:41:30;2.13;;;1.75;;
53245;SDS011;39569;51.090;-1.786;2022-07-04T14:43:58;12.27;;;3.33;;
53245;SDS011;39569;51.090;-1.786;2022-07-04T14:46:25;3.55;;;2.45;;